sensor_id;sensor_type;location;lat;lon;timestamp;temperature;humidity
19930;DHT22;10127;47.780;9.606;2022-08-19T00:01:42;19.10;99.90
19930;DHT22;10127;47.780;9.606;2022-08-19T00:04:11;19.10;99.90
19930;DHT22;10127;47.780;9.606;2022-08-19T00:06:39;19.10;99.90
19930;DHT22;10127;47.780;9.606;2022-08-19T00:09:09;19.00;99.90
19930;DHT22;10127;47.780;9.606;2022-08-19T00:11:35;19.00;99.90
19930;DHT22;10127;47.780;9.606;2022-08-19T00:14:04;19.10;99.90
19930;DHT22;10127;47.780;9.606;2022-08-19T00:16:30;19.10;99.90
19930;DHT22;10127;47.780;9.606;2022-08-19T00:18:55;19.00;99.90
19930;DHT22;10127;47.780;9.606;2022-08-19T00:21:25;19.00;99.90
19930;DHT22;10127;47.780;9.606;2022-08-19T00:23:52;19.00;99.90
19930;DHT22;10127;47.780;9.606;2022-08-19T00:26:18;18.90;99.90
19930;DHT22;10127;47.780;9.606;2022-08-19T00:28:44;18.90;99.90
19930;DHT22;10127;47.780;9.606;2022-08-19T00:31:10;19.00;99.90
19930;DHT22;10127;47.780;9.606;2022-08-19T00:33:36;19.00;99.90
19930;DHT22;10127;47.780;9.606;2022-08-19T00:36:05;19.00;99.90
19930;DHT22;10127;47.780;9.606;2022-08-19T00:38:32;19.00;99.90
19930;DHT22;10127;47.780;9.606;2022-08-19T00:40:57;19.00;99.90
19930;DHT22;10127;47.780;9.606;2022-08-19T00:43:26;19.00;99.90
19930;DHT22;10127;47.780;9.606;2022-08-19T00:45:52;19.10;99.90
19930;DHT22;10127;47.780;9.606;2022-08-19T00:48:18;19.20;99.90
19930;DHT22;10127;47.780;9.606;2022-08-19T00:50:45;19.10;99.90
19930;DHT22;10127;47.780;9.606;2022-08-19T00:53:12;19.10;99.90
19930;DHT22;10127;47.780;9.606;2022-08-19T00:55:40;19.00;99.90
19930;DHT22;10127;47.780;9.606;2022-08-19T00:58:11;19.10;99.90
19930;DHT22;10127;47.780;9.606;2022-08-19T01:00:37;19.20;99.90
19930;DHT22;10127;47.780;9.606;2022-08-19T01:03:09;19.20;99.90
19930;DHT22;10127;47.780;9.606;2022-08-19T01:05:36;19.20;99.90
19930;DHT22;10127;47.780;9.606;2022-08-19T01:08:04;19.30;99.90
19930;DHT22;10127;47.780;9.606;2022-08-19T01:10:33;19.20;99.90
19930;DHT22;10127;47.780;9.606;2022-08-19T01:13:01;19.20;99.90
19930;DHT22;10127;47.780;9.606;2022-08-19T01:15:33;19.30;99.90
19930;DHT22;10127;47.780;9.606;2022-08-19T01:18:06;19.20;99.90
19930;DHT22;10127;47.780;9.606;2022-08-19T01:20:32;19.30;99.90
19930;DHT22;10127;47.780;9.606;2022-08-19T01:22:59;19.20;99.90
19930;DHT22;10127;47.780;9.606;2022-08-19T01:25:36;19.20;99.90
19930;DHT22;10127;47.780;9.606;2022-08-19T01:28:04;19.10;99.90
19930;DHT22;10127;47.780;9.606;2022-08-19T01:30:33;19.10;99.90
19930;DHT22;10127;47.780;9.606;2022-08-19T01:32:59;18.90;99.90
19930;DHT22;10127;47.780;9.606;2022-08-19T01:35:28;18.90;99.90
19930;DHT22;10127;47.780;9.606;2022-08-19T01:37:58;18.80;99.90
19930;DHT22;10127;47.780;9.606;2022-08-19T01:40:27;18.80;99.90
19930;DHT22;10127;47.780;9.606;2022-08-19T01:42:54;18.80;99.90
19930;DHT22;10127;47.780;9.606;2022-08-19T01:45:21;18.80;99.90
19930;DHT22;10127;47.780;9.606;2022-08-19T01:47:48;18.80;99.90
19930;DHT22;10127;47.780;9.606;2022-08-19T01:50:15;18.80;99.90
19930;DHT22;10127;47.780;9.606;2022-08-19T01:52:42;18.80;99.90
19930;DHT22;10127;47.780;9.606;2022-08-19T01:55:11;18.80;99.90
19930;DHT22;10127;47.780;9.606;2022-08-19T01:57:39;18.80;99.90
19930;DHT22;10127;47.780;9.606;2022-08-19T02:00:09;18.90;99.90
19930;DHT22;10127;47.780;9.606;2022-08-19T02:02:34;18.90;99.90
19930;DHT22;10127;47.780;9.606;2022-08-19T02:05:00;19.00;99.90
19930;DHT22;10127;47.780;9.606;2022-08-19T02:07:26;19.00;99.90
19930;DHT22;10127;47.780;9.606;2022-08-19T02:09:53;19.00;99.90
19930;DHT22;10127;47.780;9.606;2022-08-19T02:12:20;18.90;99.90
19930;DHT22;10127;47.780;9.606;2022-08-19T02:14:46;18.90;99.90
19930;DHT22;10127;47.780;9.606;2022-08-19T02:17:11;18.90;99.90
19930;DHT22;10127;47.780;9.606;2022-08-19T02:19:37;18.90;99.90
19930;DHT22;10127;47.780;9.606;2022-08-19T02:22:03;18.70;99.90
19930;DHT22;10127;47.780;9.606;2022-08-19T02:24:29;18.80;99.90
19930;DHT22;10127;47.780;9.606;2022-08-19T02:26:54;18.90;99.90
19930;DHT22;10127;47.780;9.606;2022-08-19T02:29:20;18.80;99.90
19930;DHT22;10127;47.780;9.606;2022-08-19T02:31:46;18.80;99.90
19930;DHT22;10127;47.780;9.606;2022-08-19T02:34:11;18.70;99.90
19930;DHT22;10127;47.780;9.606;2022-08-19T02:36:37;18.60;99.90
19930;DHT22;10127;47.780;9.606;2022-08-19T02:39:04;18.60;99.90
19930;DHT22;10127;47.780;9.606;2022-08-19T02:41:32;18.70;99.90
19930;DHT22;10127;47.780;9.606;2022-08-19T02:43:59;18.70;99.90
19930;DHT22;10127;47.780;9.606;2022-08-19T02:46:28;18.80;99.90
19930;DHT22;10127;47.780;9.606;2022-08-19T02:48:57;18.80;99.90
19930;DHT22;10127;47.780;9.606;2022-08-19T03:11:56;18.60;99.90
19930;DHT22;10127;47.780;9.606;2022-08-19T03:14:21;18.70;99.90
19930;DHT22;10127;47.780;9.606;2022-08-19T03:16:51;18.80;99.90
19930;DHT22;10127;47.780;9.606;2022-08-19T03:19:19;18.80;99.90
19930;DHT22;10127;47.780;9.606;2022-08-19T03:21:45;18.80;99.90
19930;DHT22;10127;47.780;9.606;2022-08-19T03:24:11;18.80;99.90
19930;DHT22;10127;47.780;9.606;2022-08-19T03:26:43;18.80;99.90
19930;DHT22;10127;47.780;9.606;2022-08-19T03:29:09;18.90;99.90
19930;DHT22;10127;47.780;9.606;2022-08-19T03:31:38;18.80;99.90
19930;DHT22;10127;47.780;9.606;2022-08-19T03:34:04;18.80;99.90
19930;DHT22;10127;47.780;9.606;2022-08-19T03:36:29;18.90;99.90
19930;DHT22;10127;47.780;9.606;2022-08-19T03:38:58;18.80;99.90
19930;DHT22;10127;47.780;9.606;2022-08-19T03:41:28;18.70;99.90
19930;DHT22;10127;47.780;9.606;2022-08-19T03:43:55;18.80;99.90
19930;DHT22;10127;47.780;9.606;2022-08-19T03:46:26;18.80;99.90
19930;DHT22;10127;47.780;9.606;2022-08-19T03:48:54;18.80;99.90
19930;DHT22;10127;47.780;9.606;2022-08-19T03:51:23;18.80;99.90
19930;DHT22;10127;47.780;9.606;2022-08-19T03:53:50;18.90;99.90
19930;DHT22;10127;47.780;9.606;2022-08-19T03:56:16;18.80;99.90
19930;DHT22;10127;47.780;9.606;2022-08-19T03:58:43;18.90;99.90
19930;DHT22;10127;47.780;9.606;2022-08-19T04:01:11;18.80;99.90
19930;DHT22;10127;47.780;9.606;2022-08-19T04:03:38;18.70;99.90
19930;DHT22;10127;47.780;9.606;2022-08-19T04:06:16;18.60;99.90
19930;DHT22;10127;47.780;9.606;2022-08-19T04:08:43;18.50;99.90
19930;DHT22;10127;47.780;9.606;2022-08-19T04:11:11;18.40;99.90
19930;DHT22;10127;47.780;9.606;2022-08-19T04:13:37;18.60;99.90
19930;DHT22;10127;47.780;9.606;2022-08-19T04:16:04;18.50;99.90
19930;DHT22;10127;47.780;9.606;2022-08-19T04:18:30;18.50;99.90
19930;DHT22;10127;47.780;9.606;2022-08-19T04:20:55;18.70;99.90
19930;DHT22;10127;47.780;9.606;2022-08-19T04:23:22;18.70;99.90
19930;DHT22;10127;47.780;9.606;2022-08-19T04:25:48;18.70;99.90
19930;DHT22;10127;47.780;9.606;2022-08-19T04:28:13;18.60;99.90
19930;DHT22;10127;47.780;9.606;2022-08-19T04:30:48;18.40;99.90
19930;DHT22;10127;47.780;9.606;2022-08-19T04:33:16;18.40;99.90
19930;DHT22;10127;47.780;9.606;2022-08-19T04:35:44;18.40;99.90
19930;DHT22;10127;47.780;9.606;2022-08-19T04:38:11;18.30;99.90
19930;DHT22;10127;47.780;9.606;2022-08-19T04:40:44;18.30;99.90
19930;DHT22;10127;47.780;9.606;2022-08-19T04:43:30;18.50;99.90
19930;DHT22;10127;47.780;9.606;2022-08-19T04:45:56;18.40;99.90
19930;DHT22;10127;47.780;9.606;2022-08-19T04:48:23;18.30;99.90
19930;DHT22;10127;47.780;9.606;2022-08-19T04:50:56;18.30;99.90
19930;DHT22;10127;47.780;9.606;2022-08-19T04:53:29;18.40;99.90
19930;DHT22;10127;47.780;9.606;2022-08-19T04:55:56;18.30;99.90
19930;DHT22;10127;47.780;9.606;2022-08-19T04:58:24;18.40;99.90
19930;DHT22;10127;47.780;9.606;2022-08-19T05:00:50;18.40;99.90
19930;DHT22;10127;47.780;9.606;2022-08-19T05:03:16;18.40;99.90
19930;DHT22;10127;47.780;9.606;2022-08-19T05:05:43;18.40;99.90
19930;DHT22;10127;47.780;9.606;2022-08-19T05:08:09;18.30;99.90
19930;DHT22;10127;47.780;9.606;2022-08-19T05:10:36;18.40;99.90
19930;DHT22;10127;47.780;9.606;2022-08-19T05:13:02;18.40;99.90
19930;DHT22;10127;47.780;9.606;2022-08-19T05:15:28;18.40;99.90
19930;DHT22;10127;47.780;9.606;2022-08-19T05:17:53;18.40;99.90
19930;DHT22;10127;47.780;9.606;2022-08-19T05:20:38;18.40;99.90
19930;DHT22;10127;47.780;9.606;2022-08-19T05:23:22;18.40;99.90
19930;DHT22;10127;47.780;9.606;2022-08-19T05:25:48;18.40;99.90
19930;DHT22;10127;47.780;9.606;2022-08-19T05:28:13;18.50;99.90
19930;DHT22;10127;47.780;9.606;2022-08-19T05:30:39;18.50;99.90
19930;DHT22;10127;47.780;9.606;2022-08-19T05:33:06;18.50;99.90
19930;DHT22;10127;47.780;9.606;2022-08-19T05:35:36;18.50;99.90
19930;DHT22;10127;47.780;9.606;2022-08-19T05:38:02;18.50;99.90
19930;DHT22;10127;47.780;9.606;2022-08-19T05:40:28;18.50;99.90
19930;DHT22;10127;47.780;9.606;2022-08-19T05:42:53;18.50;99.90
19930;DHT22;10127;47.780;9.606;2022-08-19T05:45:19;18.40;99.90
19930;DHT22;10127;47.780;9.606;2022-08-19T05:47:46;18.40;99.90
19930;DHT22;10127;47.780;9.606;2022-08-19T05:50:12;18.40;99.90
19930;DHT22;10127;47.780;9.606;2022-08-19T05:52:38;18.60;99.90
19930;DHT22;10127;47.780;9.606;2022-08-19T05:55:03;18.70;99.90
19930;DHT22;10127;47.780;9.606;2022-08-19T05:57:30;18.70;99.90
19930;DHT22;10127;47.780;9.606;2022-08-19T05:59:56;18.80;99.90
19930;DHT22;10127;47.780;9.606;2022-08-19T06:02:22;18.80;99.90
19930;DHT22;10127;47.780;9.606;2022-08-19T06:04:48;18.80;99.90
19930;DHT22;10127;47.780;9.606;2022-08-19T06:07:14;18.90;99.90
19930;DHT22;10127;47.780;9.606;2022-08-19T06:09:40;18.90;99.90
19930;DHT22;10127;47.780;9.606;2022-08-19T06:12:06;18.90;99.90
19930;DHT22;10127;47.780;9.606;2022-08-19T06:14:34;18.90;99.90
19930;DHT22;10127;47.780;9.606;2022-08-19T06:17:00;18.90;99.90
19930;DHT22;10127;47.780;9.606;2022-08-19T06:19:29;18.80;99.90
19930;DHT22;10127;47.780;9.606;2022-08-19T06:21:59;18.80;99.90
19930;DHT22;10127;47.780;9.606;2022-08-19T06:24:27;18.80;99.90
19930;DHT22;10127;47.780;9.606;2022-08-19T06:26:55;18.80;99.90
19930;DHT22;10127;47.780;9.606;2022-08-19T06:29:23;18.90;99.90
19930;DHT22;10127;47.780;9.606;2022-08-19T06:31:50;18.90;99.90
19930;DHT22;10127;47.780;9.606;2022-08-19T06:34:17;18.90;99.90
19930;DHT22;10127;47.780;9.606;2022-08-19T06:36:48;18.90;99.90
19930;DHT22;10127;47.780;9.606;2022-08-19T06:39:18;18.90;99.90
19930;DHT22;10127;47.780;9.606;2022-08-19T06:41:46;18.90;99.90
19930;DHT22;10127;47.780;9.606;2022-08-19T06:44:12;19.00;99.90
19930;DHT22;10127;47.780;9.606;2022-08-19T06:46:39;19.00;99.90
19930;DHT22;10127;47.780;9.606;2022-08-19T06:49:05;19.00;99.90
19930;DHT22;10127;47.780;9.606;2022-08-19T06:51:37;19.00;99.90
19930;DHT22;10127;47.780;9.606;2022-08-19T06:54:03;19.00;99.90
19930;DHT22;10127;47.780;9.606;2022-08-19T06:56:30;19.00;99.90
19930;DHT22;10127;47.780;9.606;2022-08-19T06:59:06;18.90;99.90
19930;DHT22;10127;47.780;9.606;2022-08-19T07:01:41;18.90;99.90
19930;DHT22;10127;47.780;9.606;2022-08-19T07:04:08;19.00;99.90
19930;DHT22;10127;47.780;9.606;2022-08-19T07:06:34;19.00;99.90
19930;DHT22;10127;47.780;9.606;2022-08-19T07:09:00;19.10;99.90
19930;DHT22;10127;47.780;9.606;2022-08-19T07:11:26;19.00;99.90
19930;DHT22;10127;47.780;9.606;2022-08-19T07:13:52;19.00;99.90
19930;DHT22;10127;47.780;9.606;2022-08-19T07:16:19;19.00;99.90
19930;DHT22;10127;47.780;9.606;2022-08-19T07:18:49;19.00;99.90
19930;DHT22;10127;47.780;9.606;2022-08-19T07:21:21;19.00;99.90
19930;DHT22;10127;47.780;9.606;2022-08-19T07:23:48;19.00;99.90
19930;DHT22;10127;47.780;9.606;2022-08-19T07:26:20;19.00;99.90
19930;DHT22;10127;47.780;9.606;2022-08-19T07:28:48;19.10;99.90
19930;DHT22;10127;47.780;9.606;2022-08-19T07:31:17;19.10;99.90
19930;DHT22;10127;47.780;9.606;2022-08-19T07:33:44;19.20;99.90
19930;DHT22;10127;47.780;9.606;2022-08-19T07:36:11;19.20;99.90
19930;DHT22;10127;47.780;9.606;2022-08-19T07:38:42;19.30;99.90
19930;DHT22;10127;47.780;9.606;2022-08-19T07:41:14;19.30;99.90
19930;DHT22;10127;47.780;9.606;2022-08-19T07:43:40;19.40;99.90
19930;DHT22;10127;47.780;9.606;2022-08-19T07:46:07;19.30;99.90
19930;DHT22;10127;47.780;9.606;2022-08-19T07:48:32;19.20;99.90
19930;DHT22;10127;47.780;9.606;2022-08-19T07:51:00;19.30;99.90
19930;DHT22;10127;47.780;9.606;2022-08-19T07:53:31;19.30;99.90
19930;DHT22;10127;47.780;9.606;2022-08-19T07:55:58;19.20;99.90
19930;DHT22;10127;47.780;9.606;2022-08-19T07:58:27;19.20;99.90
19930;DHT22;10127;47.780;9.606;2022-08-19T08:00:53;19.30;99.90
19930;DHT22;10127;47.780;9.606;2022-08-19T08:03:20;19.30;99.90
19930;DHT22;10127;47.780;9.606;2022-08-19T08:06:07;19.40;99.90
19930;DHT22;10127;47.780;9.606;2022-08-19T08:08:51;19.50;99.90
19930;DHT22;10127;47.780;9.606;2022-08-19T08:11:35;19.50;99.90
19930;DHT22;10127;47.780;9.606;2022-08-19T08:14:01;19.50;99.90
19930;DHT22;10127;47.780;9.606;2022-08-19T08:16:27;19.50;99.90
19930;DHT22;10127;47.780;9.606;2022-08-19T08:18:57;19.70;99.90
19930;DHT22;10127;47.780;9.606;2022-08-19T08:21:23;19.70;99.90
19930;DHT22;10127;47.780;9.606;2022-08-19T08:23:48;19.60;99.90
19930;DHT22;10127;47.780;9.606;2022-08-19T08:26:14;19.80;99.90
19930;DHT22;10127;47.780;9.606;2022-08-19T08:28:40;19.80;99.90
19930;DHT22;10127;47.780;9.606;2022-08-19T08:31:06;19.70;99.90
19930;DHT22;10127;47.780;9.606;2022-08-19T08:33:31;19.70;99.90
19930;DHT22;10127;47.780;9.606;2022-08-19T08:35:57;19.70;99.90
19930;DHT22;10127;47.780;9.606;2022-08-19T08:38:22;19.70;99.90
19930;DHT22;10127;47.780;9.606;2022-08-19T08:40:51;19.70;99.90
19930;DHT22;10127;47.780;9.606;2022-08-19T08:43:33;19.50;99.90
19930;DHT22;10127;47.780;9.606;2022-08-19T08:46:10;19.40;99.90
19930;DHT22;10127;47.780;9.606;2022-08-19T08:48:46;19.40;99.90
19930;DHT22;10127;47.780;9.606;2022-08-19T08:51:20;19.50;99.90
19930;DHT22;10127;47.780;9.606;2022-08-19T08:53:51;19.50;99.90
19930;DHT22;10127;47.780;9.606;2022-08-19T08:56:17;19.30;99.90
19930;DHT22;10127;47.780;9.606;2022-08-19T08:58:51;19.10;99.90
19930;DHT22;10127;47.780;9.606;2022-08-19T09:01:19;19.10;99.90
19930;DHT22;10127;47.780;9.606;2022-08-19T09:03:46;19.00;99.90
19930;DHT22;10127;47.780;9.606;2022-08-19T09:06:18;18.90;99.90
19930;DHT22;10127;47.780;9.606;2022-08-19T09:08:53;19.00;99.90
19930;DHT22;10127;47.780;9.606;2022-08-19T09:11:33;19.10;99.90
19930;DHT22;10127;47.780;9.606;2022-08-19T09:16:58;19.00;99.90
19930;DHT22;10127;47.780;9.606;2022-08-19T09:19:25;18.80;99.90
19930;DHT22;10127;47.780;9.606;2022-08-19T09:21:50;18.70;99.90
19930;DHT22;10127;47.780;9.606;2022-08-19T09:24:16;18.60;99.90
19930;DHT22;10127;47.780;9.606;2022-08-19T09:26:42;18.60;99.90
19930;DHT22;10127;47.780;9.606;2022-08-19T09:29:09;18.60;99.90
19930;DHT22;10127;47.780;9.606;2022-08-19T09:31:36;18.60;99.90
19930;DHT22;10127;47.780;9.606;2022-08-19T09:34:02;18.60;99.90
19930;DHT22;10127;47.780;9.606;2022-08-19T09:36:30;18.60;99.90
19930;DHT22;10127;47.780;9.606;2022-08-19T09:39:03;18.60;99.90
19930;DHT22;10127;47.780;9.606;2022-08-19T09:41:29;18.60;99.90
19930;DHT22;10127;47.780;9.606;2022-08-19T09:43:56;18.60;99.90
19930;DHT22;10127;47.780;9.606;2022-08-19T09:46:24;18.60;99.90
19930;DHT22;10127;47.780;9.606;2022-08-19T09:48:50;18.60;99.90
19930;DHT22;10127;47.780;9.606;2022-08-19T09:51:20;18.60;99.90
19930;DHT22;10127;47.780;9.606;2022-08-19T09:53:47;18.60;99.90
19930;DHT22;10127;47.780;9.606;2022-08-19T09:56:18;18.50;99.90
19930;DHT22;10127;47.780;9.606;2022-08-19T09:58:44;18.60;99.90
19930;DHT22;10127;47.780;9.606;2022-08-19T10:01:16;18.60;99.90
19930;DHT22;10127;47.780;9.606;2022-08-19T10:03:42;18.70;99.90
19930;DHT22;10127;47.780;9.606;2022-08-19T10:06:08;18.70;99.90
19930;DHT22;10127;47.780;9.606;2022-08-19T10:08:36;18.80;99.90
19930;DHT22;10127;47.780;9.606;2022-08-19T10:11:02;18.80;99.90
19930;DHT22;10127;47.780;9.606;2022-08-19T10:13:30;18.80;99.90
19930;DHT22;10127;47.780;9.606;2022-08-19T10:16:03;18.80;99.90
19930;DHT22;10127;47.780;9.606;2022-08-19T10:18:29;18.80;99.90
19930;DHT22;10127;47.780;9.606;2022-08-19T10:23:36;18.90;99.90
19930;DHT22;10127;47.780;9.606;2022-08-19T10:26:04;18.90;99.90
19930;DHT22;10127;47.780;9.606;2022-08-19T10:28:34;18.80;99.90
19930;DHT22;10127;47.780;9.606;2022-08-19T10:31:07;18.80;99.90
19930;DHT22;10127;47.780;9.606;2022-08-19T10:33:34;18.80;99.90
19930;DHT22;10127;47.780;9.606;2022-08-19T10:36:02;19.00;99.90
19930;DHT22;10127;47.780;9.606;2022-08-19T10:38:28;19.00;99.90
19930;DHT22;10127;47.780;9.606;2022-08-19T10:40:54;19.00;99.90
19930;DHT22;10127;47.780;9.606;2022-08-19T10:43:20;19.00;99.90
19930;DHT22;10127;47.780;9.606;2022-08-19T10:45:52;18.90;99.90
19930;DHT22;10127;47.780;9.606;2022-08-19T10:48:20;19.00;99.90
19930;DHT22;10127;47.780;9.606;2022-08-19T10:50:46;19.00;99.90
19930;DHT22;10127;47.780;9.606;2022-08-19T10:53:30;19.00;99.90
19930;DHT22;10127;47.780;9.606;2022-08-19T10:55:55;19.10;99.90
19930;DHT22;10127;47.780;9.606;2022-08-19T10:58:47;19.00;99.90
19930;DHT22;10127;47.780;9.606;2022-08-19T11:01:13;19.00;99.90
19930;DHT22;10127;47.780;9.606;2022-08-19T11:03:39;19.00;99.90
19930;DHT22;10127;47.780;9.606;2022-08-19T11:06:07;18.90;99.90
19930;DHT22;10127;47.780;9.606;2022-08-19T11:08:34;19.00;99.90
19930;DHT22;10127;47.780;9.606;2022-08-19T11:11:03;19.00;99.90
19930;DHT22;10127;47.780;9.606;2022-08-19T11:13:35;19.10;99.90
19930;DHT22;10127;47.780;9.606;2022-08-19T11:16:09;19.20;99.90
19930;DHT22;10127;47.780;9.606;2022-08-19T11:18:38;19.10;99.90
19930;DHT22;10127;47.780;9.606;2022-08-19T11:21:31;19.10;99.90
19930;DHT22;10127;47.780;9.606;2022-08-19T11:24:03;19.10;99.90
19930;DHT22;10127;47.780;9.606;2022-08-19T11:26:31;19.10;99.90
19930;DHT22;10127;47.780;9.606;2022-08-19T11:28:58;19.30;99.90
19930;DHT22;10127;47.780;9.606;2022-08-19T11:31:27;19.30;99.90
19930;DHT22;10127;47.780;9.606;2022-08-19T11:33:53;19.50;99.90
19930;DHT22;10127;47.780;9.606;2022-08-19T11:36:20;19.50;99.90
19930;DHT22;10127;47.780;9.606;2022-08-19T11:38:47;19.60;99.90
19930;DHT22;10127;47.780;9.606;2022-08-19T11:41:14;19.50;99.90
19930;DHT22;10127;47.780;9.606;2022-08-19T11:43:40;19.50;99.90
19930;DHT22;10127;47.780;9.606;2022-08-19T11:46:07;19.60;99.90
19930;DHT22;10127;47.780;9.606;2022-08-19T11:48:34;19.60;99.90
19930;DHT22;10127;47.780;9.606;2022-08-19T11:51:04;19.60;99.90
19930;DHT22;10127;47.780;9.606;2022-08-19T11:53:32;19.50;99.90
19930;DHT22;10127;47.780;9.606;2022-08-19T11:55:58;19.50;99.90
19930;DHT22;10127;47.780;9.606;2022-08-19T11:58:24;19.50;99.90
19930;DHT22;10127;47.780;9.606;2022-08-19T12:00:50;19.50;99.90
19930;DHT22;10127;47.780;9.606;2022-08-19T12:03:16;19.50;99.90
19930;DHT22;10127;47.780;9.606;2022-08-19T12:05:43;19.40;99.90
19930;DHT22;10127;47.780;9.606;2022-08-19T12:08:09;19.40;99.90
19930;DHT22;10127;47.780;9.606;2022-08-19T12:10:35;19.40;99.90
19930;DHT22;10127;47.780;9.606;2022-08-19T12:13:01;19.30;99.90
19930;DHT22;10127;47.780;9.606;2022-08-19T12:15:27;19.30;99.90
19930;DHT22;10127;47.780;9.606;2022-08-19T12:17:55;19.40;99.90
19930;DHT22;10127;47.780;9.606;2022-08-19T12:20:23;19.50;99.90
19930;DHT22;10127;47.780;9.606;2022-08-19T12:22:49;19.40;99.90
19930;DHT22;10127;47.780;9.606;2022-08-19T12:25:16;19.50;99.90
19930;DHT22;10127;47.780;9.606;2022-08-19T12:27:42;19.40;99.90
19930;DHT22;10127;47.780;9.606;2022-08-19T12:30:10;19.50;99.90
19930;DHT22;10127;47.780;9.606;2022-08-19T12:32:36;19.60;99.90
19930;DHT22;10127;47.780;9.606;2022-08-19T12:35:03;19.60;99.90
19930;DHT22;10127;47.780;9.606;2022-08-19T12:37:29;19.70;99.90
19930;DHT22;10127;47.780;9.606;2022-08-19T12:39:57;19.60;99.90
19930;DHT22;10127;47.780;9.606;2022-08-19T12:42:22;19.60;99.90
19930;DHT22;10127;47.780;9.606;2022-08-19T12:44:48;19.60;99.90
19930;DHT22;10127;47.780;9.606;2022-08-19T12:47:13;19.70;99.90
19930;DHT22;10127;47.780;9.606;2022-08-19T12:49:40;19.70;99.90
19930;DHT22;10127;47.780;9.606;2022-08-19T12:52:07;19.80;99.90
19930;DHT22;10127;47.780;9.606;2022-08-19T12:54:34;19.70;99.90
19930;DHT22;10127;47.780;9.606;2022-08-19T12:57:00;19.70;99.90
19930;DHT22;10127;47.780;9.606;2022-08-19T12:59:29;19.70;99.90
19930;DHT22;10127;47.780;9.606;2022-08-19T13:01:55;19.70;99.90
19930;DHT22;10127;47.780;9.606;2022-08-19T13:04:20;19.80;99.90
19930;DHT22;10127;47.780;9.606;2022-08-19T13:06:46;19.80;99.90
19930;DHT22;10127;47.780;9.606;2022-08-19T13:09:11;19.80;99.90
19930;DHT22;10127;47.780;9.606;2022-08-19T13:11:37;19.80;99.90
19930;DHT22;10127;47.780;9.606;2022-08-19T13:14:04;19.80;99.90
19930;DHT22;10127;47.780;9.606;2022-08-19T13:16:30;19.80;99.90
19930;DHT22;10127;47.780;9.606;2022-08-19T13:18:57;19.90;99.90
19930;DHT22;10127;47.780;9.606;2022-08-19T13:21:26;19.90;99.90
19930;DHT22;10127;47.780;9.606;2022-08-19T13:23:55;19.80;99.90
19930;DHT22;10127;47.780;9.606;2022-08-19T13:26:21;19.80;99.90
19930;DHT22;10127;47.780;9.606;2022-08-19T13:28:47;19.80;99.90
19930;DHT22;10127;47.780;9.606;2022-08-19T13:31:33;19.90;99.90
19930;DHT22;10127;47.780;9.606;2022-08-19T13:34:19;19.90;99.90
19930;DHT22;10127;47.780;9.606;2022-08-19T13:36:52;20.00;99.90
19930;DHT22;10127;47.780;9.606;2022-08-19T13:39:18;19.80;99.90
19930;DHT22;10127;47.780;9.606;2022-08-19T13:41:45;19.80;99.90
19930;DHT22;10127;47.780;9.606;2022-08-19T13:44:16;19.80;99.90
19930;DHT22;10127;47.780;9.606;2022-08-19T13:46:44;19.80;99.90
19930;DHT22;10127;47.780;9.606;2022-08-19T13:49:11;19.90;99.90
19930;DHT22;10127;47.780;9.606;2022-08-19T13:51:38;19.90;99.90
19930;DHT22;10127;47.780;9.606;2022-08-19T13:54:06;20.00;99.90
19930;DHT22;10127;47.780;9.606;2022-08-19T13:56:31;19.80;99.90
19930;DHT22;10127;47.780;9.606;2022-08-19T13:58:57;19.70;99.90
19930;DHT22;10127;47.780;9.606;2022-08-19T14:01:23;19.60;99.90
19930;DHT22;10127;47.780;9.606;2022-08-19T14:03:49;19.70;99.90
19930;DHT22;10127;47.780;9.606;2022-08-19T14:06:14;19.70;99.90
19930;DHT22;10127;47.780;9.606;2022-08-19T14:08:40;19.70;99.90
19930;DHT22;10127;47.780;9.606;2022-08-19T14:11:07;19.50;99.90
19930;DHT22;10127;47.780;9.606;2022-08-19T14:13:33;19.60;99.90
19930;DHT22;10127;47.780;9.606;2022-08-19T14:15:59;19.60;99.90
19930;DHT22;10127;47.780;9.606;2022-08-19T14:18:25;19.60;99.90
19930;DHT22;10127;47.780;9.606;2022-08-19T14:20:51;19.60;99.90
19930;DHT22;10127;47.780;9.606;2022-08-19T14:23:17;19.60;99.90
19930;DHT22;10127;47.780;9.606;2022-08-19T14:25:43;19.60;99.90
19930;DHT22;10127;47.780;9.606;2022-08-19T14:28:10;19.50;99.90
19930;DHT22;10127;47.780;9.606;2022-08-19T14:30:36;19.50;99.90
19930;DHT22;10127;47.780;9.606;2022-08-19T14:33:04;19.30;99.90
19930;DHT22;10127;47.780;9.606;2022-08-19T14:35:32;19.30;99.90
19930;DHT22;10127;47.780;9.606;2022-08-19T14:37:59;19.40;99.90
19930;DHT22;10127;47.780;9.606;2022-08-19T14:40:27;19.50;99.90
19930;DHT22;10127;47.780;9.606;2022-08-19T14:42:58;19.40;99.90
19930;DHT22;10127;47.780;9.606;2022-08-19T14:45:29;19.40;99.90
19930;DHT22;10127;47.780;9.606;2022-08-19T14:47:55;19.40;99.90
19930;DHT22;10127;47.780;9.606;2022-08-19T14:50:21;19.50;99.90
19930;DHT22;10127;47.780;9.606;2022-08-19T14:52:47;19.50;99.90
19930;DHT22;10127;47.780;9.606;2022-08-19T14:55:14;19.60;99.90
19930;DHT22;10127;47.780;9.606;2022-08-19T14:57:41;19.60;99.90
19930;DHT22;10127;47.780;9.606;2022-08-19T15:00:07;19.60;99.90
19930;DHT22;10127;47.780;9.606;2022-08-19T15:02:36;19.60;99.90
19930;DHT22;10127;47.780;9.606;2022-08-19T15:05:02;19.60;99.90
19930;DHT22;10127;47.780;9.606;2022-08-19T15:07:28;19.50;99.90
19930;DHT22;10127;47.780;9.606;2022-08-19T15:09:54;19.40;99.90
19930;DHT22;10127;47.780;9.606;2022-08-19T15:12:20;19.40;99.90
19930;DHT22;10127;47.780;9.606;2022-08-19T15:14:45;19.40;99.90
19930;DHT22;10127;47.780;9.606;2022-08-19T15:17:16;19.40;99.90
19930;DHT22;10127;47.780;9.606;2022-08-19T15:19:42;19.40;99.90
19930;DHT22;10127;47.780;9.606;2022-08-19T15:22:07;19.30;99.90
19930;DHT22;10127;47.780;9.606;2022-08-19T15:24:33;19.30;99.90
19930;DHT22;10127;47.780;9.606;2022-08-19T15:27:01;19.40;99.90
19930;DHT22;10127;47.780;9.606;2022-08-19T15:29:26;19.40;99.90
19930;DHT22;10127;47.780;9.606;2022-08-19T15:31:52;19.40;99.90
19930;DHT22;10127;47.780;9.606;2022-08-19T15:34:21;19.40;99.90
19930;DHT22;10127;47.780;9.606;2022-08-19T15:36:46;19.30;99.90
19930;DHT22;10127;47.780;9.606;2022-08-19T15:39:12;19.30;99.90
19930;DHT22;10127;47.780;9.606;2022-08-19T15:41:38;19.30;99.90
19930;DHT22;10127;47.780;9.606;2022-08-19T15:44:08;19.20;99.90
19930;DHT22;10127;47.780;9.606;2022-08-19T15:46:36;19.20;99.90
19930;DHT22;10127;47.780;9.606;2022-08-19T15:49:02;19.20;99.90
19930;DHT22;10127;47.780;9.606;2022-08-19T15:51:30;19.20;99.90
19930;DHT22;10127;47.780;9.606;2022-08-19T15:53:57;19.20;99.90
19930;DHT22;10127;47.780;9.606;2022-08-19T15:56:23;19.20;99.90
19930;DHT22;10127;47.780;9.606;2022-08-19T15:58:49;19.20;99.90
19930;DHT22;10127;47.780;9.606;2022-08-19T16:01:33;19.20;99.90